Time;durP1;ratioP1;P1;durP2;ratioP2;P2;SDS_P1;SDS_P2;PMS_P1;PMS_P2;Temp;Humidity;BMP_temperature;BMP_pressure;BME280_temperature;BME280_humidity;BME280_pressure;Samples;Min_cycle;Max_cycle;Signal;HPM_P1;HPM_P2
2022/01/29 00:02:18;;;;;;;5.82;3.05;;;2.10;99.90;;;;;;5070404;28;20195;-90
2022/01/29 00:04:47;;;;;;;4.85;2.42;;;2.00;99.90;;;;;;5070424;28;20199;-89
2022/01/29 00:07:15;;;;;;;8.63;3.63;;;2.00;99.90;;;;;;5088812;28;20214;-91
2022/01/29 00:09:44;;;;;;;7.55;3.28;;;2.10;99.90;;;;;;5071462;28;20249;-90
2022/01/29 00:12:12;;;;;;;8.20;4.80;;;2.10;99.90;;;;;;5089134;28;20182;-90
2022/01/29 00:14:40;;;;;;;7.72;4.18;;;2.10;99.90;;;;;;5071187;28;20179;-90
2022/01/29 00:17:07;;;;;;;5.22;3.42;;;2.10;99.90;;;;;;5070274;28;20215;-89
2022/01/29 00:19:40;;;;;;;9.38;3.35;;;1.90;99.90;;;;;;5070663;28;20330;-89
2022/01/29 00:22:08;;;;;;;5.53;3.63;;;1.80;99.90;;;;;;5070373;28;20214;-92
2022/01/29 00:24:36;;;;;;;5.45;2.72;;;1.60;99.90;;;;;;5070365;28;20237;-90
2022/01/29 00:27:09;;;;;;;6.82;3.17;;;1.60;99.90;;;;;;5069527;28;20234;-90
2022/01/29 00:29:39;;;;;;;4.25;3.15;;;1.70;99.90;;;;;;5087553;28;20199;-90
2022/01/29 00:32:08;;;;;;;10.45;4.50;;;1.90;99.90;;;;;;5088610;28;20190;-90
2022/01/29 00:34:36;;;;;;;10.13;4.88;;;1.80;99.90;;;;;;5087902;28;20357;-89
2022/01/29 00:37:05;;;;;;;11.82;4.07;;;1.70;99.90;;;;;;5087502;28;20257;-90
2022/01/29 00:39:32;;;;;;;5.03;3.55;;;1.90;99.90;;;;;;5070020;28;20257;-90
2022/01/29 00:42:01;;;;;;;4.90;3.67;;;1.80;99.90;;;;;;5071797;28;20195;-91
2022/01/29 00:44:44;;;;;;;9.00;4.43;;;1.70;99.90;;;;;;5089951;28;20262;-91
2022/01/29 00:47:13;;;;;;;13.45;3.67;;;1.80;99.90;;;;;;5071441;28;20410;-91
2022/01/29 00:49:41;;;;;;;7.07;3.70;;;1.90;99.90;;;;;;5089077;28;20226;-90
2022/01/29 00:52:09;;;;;;;8.35;3.63;;;1.80;99.90;;;;;;5071680;28;20199;-92
2022/01/29 00:54:36;;;;;;;5.10;2.83;;;1.80;99.90;;;;;;5088415;28;20258;-88
2022/01/29 00:57:04;;;;;;;6.93;4.05;;;1.80;99.90;;;;;;5087958;28;20199;-90
2022/01/29 00:59:33;;;;;;;15.63;4.65;;;1.70;99.90;;;;;;5070076;28;20199;-90
2022/01/29 01:02:02;;;;;;;14.73;5.28;;;1.80;99.90;;;;;;5070028;28;20248;-90
2022/01/29 01:04:30;;;;;;;10.60;3.85;;;1.80;99.90;;;;;;5069535;28;20206;-91
2022/01/29 01:06:57;;;;;;;10.00;3.03;;;1.60;99.90;;;;;;5069002;28;20263;-86
2022/01/29 01:09:24;;;;;;;10.13;4.30;;;1.70;99.90;;;;;;5066124;28;20283;-84
2022/01/29 01:11:52;;;;;;;7.38;4.03;;;1.80;99.90;;;;;;5083223;28;20229;-88
2022/01/29 01:14:19;;;;;;;16.35;5.88;;;1.60;99.90;;;;;;5083740;28;20258;-86
2022/01/29 01:16:47;;;;;;;7.38;3.28;;;1.50;99.90;;;;;;5066203;28;20223;-85
2022/01/29 01:19:14;;;;;;;15.38;5.35;;;1.60;99.90;;;;;;5083117;28;20290;-84
2022/01/29 01:21:41;;;;;;;7.40;4.03;;;1.60;99.90;;;;;;5083331;28;20219;-84
2022/01/29 01:24:09;;;;;;;16.58;5.85;;;1.50;99.90;;;;;;5083131;28;20270;-84
2022/01/29 01:26:36;;;;;;;13.32;3.85;;;1.50;99.90;;;;;;5083136;28;20187;-84
2022/01/29 01:29:03;;;;;;;6.35;3.08;;;1.50;99.90;;;;;;5065183;28;20198;-84
2022/01/29 01:31:31;;;;;;;11.65;5.60;;;1.50;99.90;;;;;;5083093;28;20273;-84
2022/01/29 01:33:59;;;;;;;12.60;3.72;;;1.40;99.90;;;;;;5083592;28;20205;-85
2022/01/29 01:36:27;;;;;;;13.27;3.97;;;1.50;99.90;;;;;;5083637;28;20202;-84
2022/01/29 01:39:02;;;;;;;12.07;4.43;;;1.50;99.90;;;;;;5086405;28;20285;-85
2022/01/29 01:41:36;;;;;;;12.82;4.00;;;1.20;99.90;;;;;;5089905;28;20258;-88
2022/01/29 01:44:04;;;;;;;11.65;3.45;;;1.10;99.90;;;;;;5072460;28;20214;-84
2022/01/29 01:46:32;;;;;;;7.93;3.35;;;1.10;99.90;;;;;;5090782;28;20210;-87
2022/01/29 01:48:59;;;;;;;9.98;4.70;;;1.00;99.90;;;;;;5090536;28;20195;-87
2022/01/29 01:51:27;;;;;;;9.98;4.60;;;1.10;99.90;;;;;;5090223;28;20270;-85
2022/01/29 01:53:54;;;;;;;9.50;3.22;;;1.20;99.90;;;;;;5089691;28;20198;-86
2022/01/29 01:56:21;;;;;;;6.45;3.53;;;1.20;99.90;;;;;;5072981;28;20221;-88
2022/01/29 01:58:49;;;;;;;8.93;4.00;;;1.20;99.90;;;;;;5073362;28;20530;-88
2022/01/29 02:01:18;;;;;;;9.10;3.90;;;1.30;99.90;;;;;;5090510;28;20225;-87
2022/01/29 02:03:46;;;;;;;12.45;4.30;;;1.20;99.90;;;;;;5073561;28;20511;-87
2022/01/29 02:06:14;;;;;;;13.88;4.78;;;1.20;99.90;;;;;;5074611;28;20496;-84
2022/01/29 02:08:42;;;;;;;23.85;4.38;;;1.10;99.90;;;;;;5091839;28;20202;-85
2022/01/29 02:11:10;;;;;;;11.68;3.30;;;1.10;99.90;;;;;;5092278;28;20261;-87
2022/01/29 02:13:38;;;;;;;23.50;3.28;;;1.10;99.90;;;;;;5095294;28;20217;-84
2022/01/29 02:16:06;;;;;;;11.52;5.18;;;1.10;99.90;;;;;;5077003;28;20516;-84
2022/01/29 02:18:34;;;;;;;7.15;3.83;;;1.10;99.90;;;;;;5075739;28;20219;-85
2022/01/29 02:21:02;;;;;;;10.20;4.65;;;1.10;99.90;;;;;;5076343;28;20266;-85
2022/01/29 02:23:31;;;;;;;6.55;4.15;;;1.10;99.90;;;;;;5093255;28;20227;-85
2022/01/29 02:25:59;;;;;;;11.80;4.97;;;1.10;99.90;;;;;;5074491;28;20224;-84
2022/01/29 02:28:26;;;;;;;9.68;2.88;;;1.20;99.90;;;;;;5074613;28;20252;-86
2022/01/29 02:31:03;;;;;;;8.88;3.50;;;1.20;99.90;;;;;;5096361;28;20229;-84
2022/01/29 02:33:34;;;;;;;14.00;4.40;;;1.20;99.90;;;;;;5132681;28;20223;-84
2022/01/29 02:36:02;;;;;;;12.80;4.70;;;1.10;99.90;;;;;;5134042;28;20260;-85
2022/01/29 02:38:30;;;;;;;7.80;3.15;;;1.00;99.90;;;;;;5136148;28;20256;-84
2022/01/29 02:41:02;;;;;;;8.10;3.38;;;1.00;99.90;;;;;;5137223;28;20260;-88
2022/01/29 02:43:42;;;;;;;8.07;4.00;;;1.00;99.90;;;;;;5132153;28;20246;-87
2022/01/29 02:48:53;;;;;;;10.90;3.45;;;1.10;99.90;;;;;;5138505;28;20193;-87
2022/01/29 02:51:21;;;;;;;7.50;3.50;;;1.30;99.90;;;;;;5110468;28;20541;-88
2022/01/29 02:53:49;;;;;;;11.23;3.38;;;1.00;99.90;;;;;;5128188;28;20270;-88
2022/01/29 02:56:17;;;;;;;13.32;4.05;;;1.10;99.90;;;;;;5128165;28;20448;-86
2022/01/29 02:58:44;;;;;;;14.32;4.22;;;1.10;99.90;;;;;;5111022;28;20281;-89
2022/01/29 03:01:12;;;;;;;11.23;4.20;;;1.20;99.90;;;;;;5129054;28;20210;-88
2022/01/29 03:03:40;;;;;;;11.25;3.58;;;1.00;99.90;;;;;;5111028;28;20193;-87
2022/01/29 03:06:09;;;;;;;12.82;3.20;;;1.00;99.90;;;;;;5111006;28;20260;-89
2022/01/29 03:08:37;;;;;;;9.00;4.75;;;1.20;99.90;;;;;;5110710;28;20197;-86
2022/01/29 03:11:05;;;;;;;15.68;4.30;;;1.20;99.90;;;;;;5128396;28;20261;-88
2022/01/29 03:13:33;;;;;;;11.30;4.25;;;1.20;99.90;;;;;;5110497;28;20277;-87
2022/01/29 03:16:00;;;;;;;11.20;3.75;;;1.30;99.90;;;;;;5128627;28;20487;-88
2022/01/29 03:18:28;;;;;;;12.57;4.53;;;1.30;99.90;;;;;;5110435;28;20446;-90
2022/01/29 03:20:55;;;;;;;9.95;4.07;;;1.30;99.90;;;;;;5110484;28;20317;-87
2022/01/29 03:23:22;;;;;;;7.63;3.72;;;1.50;99.90;;;;;;5110293;28;20196;-88
2022/01/29 03:25:49;;;;;;;20.45;4.40;;;1.30;99.90;;;;;;5128817;28;20253;-85
2022/01/29 03:28:16;;;;;;;8.23;3.53;;;1.30;99.90;;;;;;5108621;28;20202;-84
2022/01/29 03:30:44;;;;;;;9.52;4.43;;;1.30;99.90;;;;;;5131059;28;20220;-89
2022/01/29 03:33:12;;;;;;;7.93;3.78;;;1.40;99.90;;;;;;5108585;28;20260;-86
2022/01/29 03:35:39;;;;;;;12.45;3.85;;;1.50;99.90;;;;;;5126458;28;20213;-85
2022/01/29 03:38:07;;;;;;;22.38;3.97;;;1.50;99.90;;;;;;5125968;28;20247;-86
2022/01/29 03:40:35;;;;;;;6.93;4.60;;;1.60;99.90;;;;;;5126486;28;20202;-85
2022/01/29 03:43:10;;;;;;;11.93;5.50;;;1.70;99.90;;;;;;5126685;28;20190;-87
2022/01/29 03:45:37;;;;;;;11.45;4.68;;;1.60;99.90;;;;;;5126856;28;20264;-85
2022/01/29 03:48:08;;;;;;;6.70;3.45;;;1.80;99.90;;;;;;5127086;28;20221;-88
2022/01/29 03:50:36;;;;;;;10.07;3.38;;;1.60;99.90;;;;;;5127145;28;20293;-86
2022/01/29 03:53:04;;;;;;;16.90;4.65;;;1.40;99.90;;;;;;5127364;28;20221;-88
2022/01/29 03:55:31;;;;;;;9.27;4.90;;;1.30;99.90;;;;;;5126612;28;20233;-88
2022/01/29 03:57:58;;;;;;;14.80;3.38;;;1.30;99.90;;;;;;5126682;28;20281;-86
2022/01/29 04:00:26;;;;;;;9.80;3.72;;;1.20;99.90;;;;;;5108476;28;20261;-87
2022/01/29 04:02:53;;;;;;;22.75;4.00;;;1.50;99.90;;;;;;5124591;27;20224;-86
2022/01/29 04:05:21;;;;;;;9.35;3.78;;;1.60;99.90;;;;;;5107987;28;20196;-86
2022/01/29 04:07:48;;;;;;;12.00;2.90;;;1.70;99.90;;;;;;5108566;28;20190;-86
2022/01/29 04:10:16;;;;;;;6.25;3.55;;;1.70;99.90;;;;;;5125907;28;20264;-87
2022/01/29 04:12:47;;;;;;;12.45;4.60;;;1.80;99.90;;;;;;5108334;28;20201;-86
2022/01/29 04:15:15;;;;;;;24.55;5.40;;;1.90;99.90;;;;;;5108229;28;20186;-87
2022/01/29 04:17:43;;;;;;;6.38;3.25;;;2.10;99.90;;;;;;5125646;28;20272;-89
2022/01/29 04:20:11;;;;;;;9.32;5.20;;;2.40;99.90;;;;;;5108365;28;20245;-87
2022/01/29 04:22:38;;;;;;;5.85;3.45;;;2.50;99.90;;;;;;5126608;28;20213;-88
2022/01/29 04:25:07;;;;;;;7.47;3.58;;;2.40;99.90;;;;;;5126919;28;20193;-87
2022/01/29 04:27:39;;;;;;;17.63;5.05;;;2.40;99.90;;;;;;5126313;28;20270;-87
2022/01/29 04:30:12;;;;;;;10.70;4.13;;;2.40;99.90;;;;;;5126656;28;20186;-87
2022/01/29 04:35:07;;;;;;;9.43;4.57;;;2.70;99.90;;;;;;5126611;28;20420;-88
2022/01/29 04:37:35;;;;;;;8.25;3.50;;;2.80;99.90;;;;;;5108873;28;20254;-87
2022/01/29 04:40:04;;;;;;;7.38;3.10;;;3.10;99.90;;;;;;5109219;28;20206;-88
2022/01/29 04:42:31;;;;;;;12.95;3.72;;;3.00;99.90;;;;;;5108688;28;20300;-88
2022/01/29 04:45:00;;;;;;;15.68;4.32;;;3.00;99.90;;;;;;5126825;28;20190;-87
2022/01/29 04:47:27;;;;;;;12.10;3.38;;;2.90;99.90;;;;;;5108849;28;20222;-87
2022/01/29 04:49:55;;;;;;;8.00;2.67;;;2.90;99.90;;;;;;5126190;28;20196;-86
2022/01/29 04:52:22;;;;;;;10.15;4.55;;;3.20;99.90;;;;;;5108608;28;20224;-87
2022/01/29 04:54:49;;;;;;;6.72;3.55;;;3.10;99.90;;;;;;5126335;28;20269;-85
2022/01/29 04:57:16;;;;;;;8.40;3.60;;;3.20;99.90;;;;;;5126113;28;20261;-85
2022/01/29 04:59:44;;;;;;;10.05;3.47;;;3.00;99.90;;;;;;5108288;28;20285;-88
2022/01/29 05:02:11;;;;;;;7.68;3.05;;;3.00;99.90;;;;;;5108630;28;20285;-88
2022/01/29 05:04:39;;;;;;;10.63;4.22;;;2.80;99.90;;;;;;5126012;28;20201;-85
2022/01/29 05:07:06;;;;;;;15.48;4.55;;;2.70;99.90;;;;;;5125650;28;20201;-86
2022/01/29 05:09:34;;;;;;;11.55;4.63;;;2.80;99.90;;;;;;5125783;28;20220;-86
2022/01/29 05:12:02;;;;;;;16.42;5.38;;;2.80;99.90;;;;;;5125778;28;20230;-85
2022/01/29 05:14:49;;;;;;;13.73;5.22;;;2.80;99.90;;;;;;5107071;28;20198;-86
2022/01/29 05:26:50;;;;;;;13.00;5.72;;;2.60;99.90;;;;;;5125422;28;20204;-86
2022/01/29 05:28:26;;;;;;;13.63;4.07;;;3.00;99.90;;;;;;5125864;28;20225;-87
2022/01/29 05:30:53;;;;;;;13.02;5.70;;;2.90;99.90;;;;;;5125631;28;20268;-85
2022/01/29 05:33:20;;;;;;;9.38;4.68;;;2.90;99.90;;;;;;5127470;28;20205;-85
2022/01/29 05:35:48;;;;;;;11.52;3.75;;;3.10;99.90;;;;;;5107995;28;20211;-86
2022/01/29 05:38:15;;;;;;;8.40;3.63;;;3.10;99.90;;;;;;5125886;28;20312;-86
2022/01/29 05:40:43;;;;;;;6.88;3.30;;;3.10;99.90;;;;;;5125926;28;20261;-86
2022/01/29 05:43:10;;;;;;;8.63;4.40;;;3.20;99.90;;;;;;5107155;28;20256;-85
2022/01/29 05:45:37;;;;;;;12.18;3.70;;;3.40;99.90;;;;;;5125436;28;20285;-85
2022/01/29 05:48:05;;;;;;;8.93;3.53;;;3.30;99.90;;;;;;5107611;28;20201;-86
2022/01/29 05:50:32;;;;;;;18.60;4.15;;;3.30;99.90;;;;;;5107821;28;20260;-86
2022/01/29 05:52:59;;;;;;;6.63;3.75;;;3.00;99.90;;;;;;5107171;28;20225;-84
2022/01/29 05:55:27;;;;;;;12.25;5.47;;;2.90;99.90;;;;;;5127255;28;20194;-85
2022/01/29 05:57:54;;;;;;;17.52;4.72;;;2.90;99.90;;;;;;5113170;28;20198;-85
2022/01/29 06:00:22;;;;;;;10.55;4.05;;;3.00;99.90;;;;;;5112888;28;20218;-84
2022/01/29 06:03:18;;;;;;;13.65;4.10;;;3.00;99.90;;;;;;5130828;28;20192;-86
2022/01/29 06:05:46;;;;;;;25.95;6.63;;;2.70;99.90;;;;;;5110988;28;20197;-85
2022/01/29 06:08:14;;;;;;;19.30;5.82;;;2.50;99.90;;;;;;5125751;28;20252;-85
2022/01/29 06:10:41;;;;;;;19.63;7.38;;;2.50;99.90;;;;;;5125443;28;20281;-83
2022/01/29 06:13:12;;;;;;;17.70;6.30;;;2.40;99.90;;;;;;5126854;28;20463;-86
2022/01/29 06:15:43;;;;;;;19.67;6.15;;;2.40;99.90;;;;;;5130481;28;20186;-85
2022/01/29 06:18:14;;;;;;;8.25;4.05;;;2.50;99.90;;;;;;5113458;28;20189;-86
2022/01/29 06:20:44;;;;;;;10.10;4.50;;;2.40;99.90;;;;;;5113379;28;20190;-85
2022/01/29 06:23:13;;;;;;;11.40;5.80;;;2.20;99.90;;;;;;5112103;28;20197;-86
2022/01/29 06:25:41;;;;;;;7.00;4.28;;;2.40;99.90;;;;;;5127874;28;20308;-87
2022/01/29 06:28:08;;;;;;;5.30;4.50;;;2.40;99.90;;;;;;5129037;28;20194;-86
2022/01/29 06:30:36;;;;;;;3.67;3.38;;;2.30;99.90;;;;;;5129107;28;20264;-86
2022/01/29 06:33:11;;;;;;;9.30;4.07;;;2.20;99.90;;;;;;5128929;28;20208;-85
2022/01/29 06:35:41;;;;;;;7.25;2.60;;;2.30;99.90;;;;;;5111235;28;20268;-86
2022/01/29 06:38:11;;;;;;;8.77;4.47;;;2.50;99.90;;;;;;5111382;28;20226;-85
2022/01/29 06:40:40;;;;;;;6.13;4.03;;;2.60;99.90;;;;;;5129479;28;20273;-86
2022/01/29 06:43:08;;;;;;;6.82;4.85;;;2.80;99.90;;;;;;5110877;28;20567;-85
2022/01/29 06:45:38;;;;;;;17.20;4.47;;;2.80;99.90;;;;;;5129204;28;20253;-86
2022/01/29 06:48:06;;;;;;;10.27;3.97;;;2.60;99.90;;;;;;5110582;28;20261;-87
2022/01/29 06:50:34;;;;;;;5.80;3.88;;;2.50;99.90;;;;;;5131895;28;20264;-87
2022/01/29 06:53:03;;;;;;;7.75;3.95;;;2.50;99.90;;;;;;5132802;28;20522;-86
2022/01/29 06:55:31;;;;;;;9.13;4.10;;;2.50;99.90;;;;;;5111660;28;20269;-86
2022/01/29 06:58:00;;;;;;;13.05;4.15;;;2.60;99.90;;;;;;5129153;28;20221;-87
2022/01/29 07:00:48;;;;;;;5.65;4.25;;;2.60;99.90;;;;;;5127974;28;20209;-85
2022/01/29 07:03:16;;;;;;;14.50;4.82;;;2.50;99.90;;;;;;5106478;28;20194;-87
2022/01/29 07:05:43;;;;;;;8.27;3.85;;;2.60;99.90;;;;;;5115991;28;20492;-87
2022/01/29 07:08:11;;;;;;;6.38;4.00;;;2.60;99.90;;;;;;5107544;28;20205;-88
2022/01/29 07:10:38;;;;;;;13.38;5.43;;;2.60;99.90;;;;;;5107208;28;20226;-88
2022/01/29 07:13:07;;;;;;;10.02;4.95;;;2.70;99.90;;;;;;5089533;28;20194;-87
2022/01/29 07:15:37;;;;;;;13.57;5.35;;;2.90;99.90;;;;;;5090105;28;20194;-87
2022/01/29 07:18:05;;;;;;;9.18;5.40;;;2.90;99.90;;;;;;5090674;28;20296;-87
2022/01/29 07:20:34;;;;;;;8.63;4.38;;;3.10;99.90;;;;;;5107122;28;20228;-87
2022/01/29 07:23:06;;;;;;;5.93;3.78;;;3.20;99.90;;;;;;5089828;28;20246;-88
2022/01/29 07:25:33;;;;;;;13.07;5.55;;;3.50;99.90;;;;;;5089504;28;20545;-88
2022/01/29 07:28:01;;;;;;;11.93;4.93;;;3.60;99.90;;;;;;5089630;28;20251;-88
2022/01/29 07:30:29;;;;;;;15.90;5.47;;;3.50;99.90;;;;;;5106683;28;20261;-86
2022/01/29 07:32:57;;;;;;;9.38;5.30;;;3.40;99.90;;;;;;5106996;28;20223;-89
2022/01/29 07:35:24;;;;;;;12.38;5.65;;;3.20;99.90;;;;;;5089240;28;20256;-88
2022/01/29 07:37:52;;;;;;;14.82;5.93;;;3.20;99.90;;;;;;5106907;28;20192;-88
2022/01/29 07:40:20;;;;;;;12.57;6.38;;;3.30;99.90;;;;;;5106912;28;20242;-89
2022/01/29 07:42:47;;;;;;;17.88;8.30;;;3.50;99.90;;;;;;5123140;28;20201;-88
2022/01/29 07:45:14;;;;;;;11.13;5.25;;;3.60;99.90;;;;;;5109732;28;20233;-87
2022/01/29 07:47:42;;;;;;;8.15;6.03;;;3.90;99.90;;;;;;5127075;28;20261;-88
2022/01/29 07:50:10;;;;;;;9.73;4.85;;;3.90;99.90;;;;;;5127451;28;20238;-88
2022/01/29 07:52:37;;;;;;;11.70;4.97;;;4.20;99.90;;;;;;5127667;28;20267;-88
2022/01/29 07:55:07;;;;;;;10.38;5.05;;;4.40;99.90;;;;;;5126349;28;20485;-88
2022/01/29 07:57:36;;;;;;;12.45;5.65;;;4.40;99.90;;;;;;5126674;28;20502;-88
2022/01/29 08:00:04;;;;;;;11.68;5.13;;;4.30;99.90;;;;;;5126581;28;20235;-89
2022/01/29 08:02:32;;;;;;;11.27;5.47;;;4.50;99.90;;;;;;5103544;28;20192;-87
2022/01/29 08:04:59;;;;;;;10.77;5.03;;;4.50;99.90;;;;;;5086154;28;20360;-87
2022/01/29 08:07:27;;;;;;;11.27;5.20;;;4.60;99.90;;;;;;5068746;28;20198;-88
2022/01/29 08:09:54;;;;;;;12.23;4.65;;;4.80;99.90;;;;;;5086399;28;20269;-88
2022/01/29 08:12:21;;;;;;;9.50;4.60;;;4.70;99.90;;;;;;5068908;28;20196;-89
2022/01/29 08:14:49;;;;;;;17.73;6.32;;;5.00;99.90;;;;;;5069657;28;20202;-87
2022/01/29 08:17:18;;;;;;;13.32;6.38;;;5.10;99.90;;;;;;5086808;28;20264;-88
2022/01/29 08:19:45;;;;;;;16.15;7.72;;;5.00;99.90;;;;;;5069103;28;20233;-89
2022/01/29 08:22:14;;;;;;;10.52;5.30;;;5.20;99.90;;;;;;5086477;28;20234;-89
2022/01/29 08:24:41;;;;;;;11.50;5.97;;;5.20;99.90;;;;;;5086394;28;20265;-89
2022/01/29 08:27:09;;;;;;;13.15;7.15;;;5.10;99.90;;;;;;5086552;28;20223;-87
2022/01/29 08:29:36;;;;;;;8.18;4.10;;;5.00;99.90;;;;;;5070182;28;20240;-89
2022/01/29 08:32:04;;;;;;;9.75;4.60;;;4.80;99.90;;;;;;5068499;28;20270;-90
2022/01/29 08:34:32;;;;;;;12.52;5.22;;;4.70;99.90;;;;;;5087155;28;20228;-87
2022/01/29 08:37:04;;;;;;;12.13;6.22;;;4.60;99.90;;;;;;5085625;28;20209;-87
2022/01/29 08:39:33;;;;;;;9.23;5.15;;;4.50;99.90;;;;;;5086376;28;20225;-88
2022/01/29 08:42:01;;;;;;;11.65;4.72;;;4.40;99.90;;;;;;5087347;28;20202;-89
2022/01/29 08:44:28;;;;;;;10.07;5.07;;;4.40;99.90;;;;;;5086265;28;20261;-89
2022/01/29 08:46:55;;;;;;;17.83;5.60;;;4.50;99.90;;;;;;5068791;28;20210;-89
2022/01/29 08:49:25;;;;;;;9.82;5.10;;;4.70;99.90;;;;;;5068458;28;20210;-89
2022/01/29 08:51:53;;;;;;;11.82;4.85;;;4.70;99.90;;;;;;5086134;28;20320;-89
2022/01/29 08:54:21;;;;;;;6.95;4.72;;;4.70;99.90;;;;;;5069645;28;20228;-89
2022/01/29 08:56:48;;;;;;;6.28;4.00;;;4.90;99.90;;;;;;5104703;28;20196;-89
2022/01/29 08:59:16;;;;;;;15.07;6.15;;;4.90;99.90;;;;;;5084605;28;20274;-90
2022/01/29 09:01:43;;;;;;;9.90;4.68;;;4.80;99.90;;;;;;5072386;28;20268;-88
2022/01/29 09:04:11;;;;;;;10.73;5.05;;;4.80;99.90;;;;;;5108362;28;20200;-89
2022/01/29 09:06:39;;;;;;;5.95;4.47;;;4.70;99.90;;;;;;5123566;28;20205;-89
2022/01/29 09:09:07;;;;;;;10.88;4.43;;;4.60;99.90;;;;;;5099475;28;20239;-89
2022/01/29 09:11:34;;;;;;;7.50;4.47;;;4.60;99.90;;;;;;5067290;28;20413;-88
2022/01/29 09:14:02;;;;;;;3.50;3.20;;;4.80;99.90;;;;;;5067359;28;20237;-89
2022/01/29 09:16:29;;;;;;;6.75;3.60;;;4.70;99.90;;;;;;5084785;28;20220;-89
2022/01/29 09:18:57;;;;;;;6.80;4.20;;;4.80;99.90;;;;;;5084590;28;20236;-88
2022/01/29 09:21:24;;;;;;;6.80;5.22;;;4.80;99.90;;;;;;5089967;28;20225;-86
2022/01/29 09:23:55;;;;;;;9.13;4.32;;;4.90;99.90;;;;;;5095897;28;20270;-87
2022/01/29 09:26:24;;;;;;;10.05;4.55;;;4.90;99.90;;;;;;5086128;28;20269;-88
2022/01/29 09:28:52;;;;;;;7.00;4.93;;;5.00;99.90;;;;;;5076493;28;20356;-88
2022/01/29 09:31:20;;;;;;;8.23;5.05;;;5.20;99.90;;;;;;5083362;28;20547;-87
2022/01/29 09:33:48;;;;;;;11.75;3.97;;;5.30;99.90;;;;;;5092668;28;20263;-88
2022/01/29 09:36:15;;;;;;;11.88;6.40;;;5.10;99.90;;;;;;5096932;28;20231;-89
2022/01/29 09:38:43;;;;;;;9.18;4.80;;;5.00;99.90;;;;;;5097560;28;20484;-88
2022/01/29 09:41:11;;;;;;;4.25;3.83;;;4.80;99.90;;;;;;5096354;28;20219;-88
2022/01/29 09:43:39;;;;;;;5.38;3.55;;;4.80;99.90;;;;;;5073290;28;20264;-88
2022/01/29 09:46:07;;;;;;;5.13;3.85;;;4.90;99.90;;;;;;5084364;28;20192;-87
2022/01/29 09:48:34;;;;;;;7.60;4.95;;;5.00;99.90;;;;;;5081126;28;20375;-88
2022/01/29 09:51:04;;;;;;;9.88;4.00;;;5.00;99.90;;;;;;5113765;28;20197;-89
2022/01/29 09:53:32;;;;;;;11.40;4.30;;;5.10;99.90;;;;;;5094194;28;20204;-87
2022/01/29 09:55:59;;;;;;;6.80;4.75;;;5.20;99.90;;;;;;5100936;28;20226;-88
2022/01/29 09:58:27;;;;;;;6.68;3.75;;;5.20;99.90;;;;;;5085466;28;20209;-87
2022/01/29 10:00:54;;;;;;;6.68;3.20;;;5.10;99.90;;;;;;5101575;28;20223;-87
2022/01/29 10:03:22;;;;;;;6.28;3.88;;;5.10;99.90;;;;;;5086245;28;20240;-87
2022/01/29 10:05:52;;;;;;;7.13;3.67;;;5.00;99.90;;;;;;5112143;28;20205;-87
2022/01/29 10:08:22;;;;;;;3.70;3.40;;;4.90;99.90;;;;;;5102991;28;20262;-87
2022/01/29 10:10:59;;;;;;;8.95;6.55;;;4.60;99.90;;;;;;5083533;28;20205;-87
2022/01/29 10:13:30;;;;;;;9.15;4.85;;;4.60;99.90;;;;;;5092896;28;20239;-87
2022/01/29 10:16:19;;;;;;;6.38;4.22;;;4.40;99.90;;;;;;5093668;28;20248;-85
2022/01/29 10:19:11;;;;;;;10.65;5.85;;;4.30;99.90;;;;;;5130758;28;20334;-86
2022/01/29 10:21:43;;;;;;;14.15;4.20;;;4.50;99.90;;;;;;5131445;28;20508;-89
2022/01/29 10:24:14;;;;;;;7.95;5.00;;;4.40;99.90;;;;;;5123084;28;20210;-89
2022/01/29 10:26:44;;;;;;;8.80;4.22;;;4.40;99.90;;;;;;5090736;28;20557;-88
2022/01/29 10:29:23;;;;;;;6.55;4.30;;;4.20;99.90;;;;;;5121826;28;20222;-87
2022/01/29 10:32:02;;;;;;;6.78;5.03;;;4.10;99.90;;;;;;5125521;28;20593;-88
2022/01/29 10:34:33;;;;;;;6.72;5.47;;;4.00;99.90;;;;;;5112722;28;20201;-88
2022/01/29 10:37:18;;;;;;;14.50;5.70;;;4.00;99.90;;;;;;5110678;28;20212;-88
2022/01/29 10:39:53;;;;;;;7.45;5.22;;;4.00;99.90;;;;;;5109632;28;20275;-87
2022/01/29 10:42:23;;;;;;;12.30;5.95;;;4.00;99.90;;;;;;5109580;28;20187;-88
2022/01/29 10:44:54;;;;;;;7.38;5.03;;;3.80;99.90;;;;;;5091034;28;20272;-89
2022/01/29 10:47:22;;;;;;;9.57;6.25;;;3.80;99.90;;;;;;5090819;28;20224;-85
2022/01/29 10:49:59;;;;;;;9.82;5.97;;;3.90;99.90;;;;;;5108362;28;20246;-88
2022/01/29 10:52:32;;;;;;;8.30;5.95;;;3.90;99.90;;;;;;5089842;28;20194;-88
2022/01/29 10:55:03;;;;;;;6.70;5.97;;;3.90;99.90;;;;;;5090268;28;20203;-87
2022/01/29 10:57:33;;;;;;;7.90;6.43;;;3.90;99.90;;;;;;5090332;28;20451;-89
2022/01/29 11:00:01;;;;;;;10.45;7.13;;;3.90;99.90;;;;;;5107812;28;20222;-88
2022/01/29 11:02:30;;;;;;;10.50;7.35;;;4.00;99.90;;;;;;5089544;28;20203;-89
2022/01/29 11:05:01;;;;;;;7.78;6.65;;;4.00;99.90;;;;;;5101147;28;20196;-88
2022/01/29 11:07:30;;;;;;;14.50;8.98;;;4.00;99.90;;;;;;5101828;28;20195;-87
2022/01/29 11:10:02;;;;;;;15.45;10.13;;;3.90;99.90;;;;;;5111105;28;20198;-88
2022/01/29 11:12:36;;;;;;;13.98;7.38;;;3.80;99.90;;;;;;5128095;28;20523;-88
2022/01/29 11:15:05;;;;;;;13.70;8.00;;;4.00;99.90;;;;;;5110148;28;20194;-88
2022/01/29 11:17:33;;;;;;;9.13;5.90;;;3.90;99.90;;;;;;5110578;28;20197;-88
2022/01/29 11:20:03;;;;;;;9.75;7.22;;;3.90;99.90;;;;;;5110201;28;20229;-88
2022/01/29 11:22:39;;;;;;;7.63;6.20;;;3.70;99.90;;;;;;5110570;28;20251;-89
2022/01/29 11:25:11;;;;;;;8.82;6.00;;;3.60;99.90;;;;;;5129240;28;20182;-86
2022/01/29 11:27:39;;;;;;;11.63;7.68;;;3.50;99.90;;;;;;5089957;28;20249;-88
2022/01/29 11:30:09;;;;;;;7.55;5.57;;;3.50;99.90;;;;;;5108760;28;20271;-87
2022/01/29 11:32:47;;;;;;;8.18;5.55;;;3.40;99.90;;;;;;5107550;28;20271;-88
2022/01/29 11:35:30;;;;;;;11.02;6.15;;;3.40;99.90;;;;;;5090693;28;20191;-87
2022/01/29 11:38:04;;;;;;;9.82;6.32;;;3.40;99.90;;;;;;5098388;28;20207;-87
2022/01/29 11:40:37;;;;;;;6.35;5.25;;;3.50;99.90;;;;;;5108299;28;20278;-87
2022/01/29 11:43:19;;;;;;;8.40;5.70;;;3.60;99.90;;;;;;5097467;28;20210;-87
2022/01/29 11:45:49;;;;;;;6.63;5.57;;;3.70;99.90;;;;;;5115774;28;20199;-84
2022/01/29 11:48:25;;;;;;;13.73;8.10;;;3.30;99.90;;;;;;5111697;28;20209;-87
2022/01/29 11:50:55;;;;;;;6.25;5.03;;;3.20;99.90;;;;;;5105019;28;20231;-88
2022/01/29 11:53:23;;;;;;;7.97;6.22;;;3.20;99.90;;;;;;5106259;28;20230;-87
2022/01/29 11:55:53;;;;;;;5.47;4.78;;;3.20;99.90;;;;;;5099585;28;20261;-88
2022/01/29 11:58:23;;;;;;;8.55;6.20;;;3.10;99.90;;;;;;5121644;28;20200;-88
2022/01/29 12:00:53;;;;;;;10.27;5.95;;;3.20;99.90;;;;;;5089494;28;20222;-89
2022/01/29 12:03:36;;;;;;;10.93;5.80;;;3.30;99.90;;;;;;5088520;28;20190;-88
2022/01/29 12:09:06;;;;;;;7.43;5.88;;;3.20;99.90;;;;;;5106715;28;20469;-87
2022/01/29 12:11:39;;;;;;;6.88;5.50;;;3.30;99.90;;;;;;5084671;28;20214;-87
2022/01/29 12:14:13;;;;;;;9.55;6.15;;;3.20;99.90;;;;;;5094134;28;20206;-87
2022/01/29 12:16:59;;;;;;;8.55;5.45;;;3.20;99.90;;;;;;5109268;28;20485;-87
2022/01/29 12:19:33;;;;;;;7.47;6.25;;;3.30;99.90;;;;;;5108732;28;20199;-87
2022/01/29 12:22:06;;;;;;;6.05;5.47;;;3.30;99.90;;;;;;5109170;28;20273;-88
2022/01/29 12:24:34;;;;;;;7.68;6.13;;;3.30;99.90;;;;;;5126699;28;20279;-88
2022/01/29 12:27:03;;;;;;;8.10;4.90;;;3.30;99.90;;;;;;5109662;28;20202;-88
2022/01/29 12:29:31;;;;;;;6.53;5.35;;;3.30;99.90;;;;;;5101549;28;20389;-87
2022/01/29 12:31:58;;;;;;;5.47;4.82;;;3.40;99.90;;;;;;5088277;28;20221;-87
2022/01/29 12:34:27;;;;;;;7.82;4.80;;;3.40;99.90;;;;;;5088876;28;20503;-86
2022/01/29 12:37:12;;;;;;;5.60;4.50;;;3.40;99.90;;;;;;5088143;28;20270;-88
2022/01/29 12:39:46;;;;;;;7.13;4.70;;;3.40;99.90;;;;;;5088081;28;20219;-87
2022/01/29 12:44:55;;;;;;;7.28;4.10;;;3.60;99.90;;;;;;5105625;28;20469;-87
2022/01/29 12:47:27;;;;;;;4.32;3.92;;;3.70;99.90;;;;;;5086469;28;20196;-87
2022/01/29 12:49:54;;;;;;;5.07;3.15;;;3.80;99.90;;;;;;5099341;28;20280;-88
2022/01/29 12:52:23;;;;;;;6.75;4.43;;;3.80;99.90;;;;;;5105008;28;20388;-87
2022/01/29 12:54:59;;;;;;;7.20;4.57;;;3.70;99.90;;;;;;5106217;28;20197;-89
2022/01/29 12:57:48;;;;;;;4.13;3.72;;;3.80;99.90;;;;;;5106897;28;20207;-88
2022/01/29 13:00:20;;;;;;;5.05;3.67;;;3.90;99.90;;;;;;5099563;28;20221;-91
2022/01/29 13:02:50;;;;;;;4.70;4.13;;;3.90;99.90;;;;;;5107715;28;20195;-87
2022/01/29 13:05:19;;;;;;;4.40;3.25;;;4.00;99.90;;;;;;5089076;28;20203;-85
2022/01/29 13:07:47;;;;;;;4.85;3.78;;;4.20;99.90;;;;;;5107016;28;20267;-88
2022/01/29 13:10:15;;;;;;;4.05;3.72;;;4.20;99.90;;;;;;5095440;28;20389;-88
2022/01/29 13:12:44;;;;;;;6.97;4.75;;;4.30;99.90;;;;;;5076884;28;20200;-90
2022/01/29 13:15:14;;;;;;;7.13;4.35;;;4.40;99.90;;;;;;5096288;28;20200;-90
2022/01/29 13:17:43;;;;;;;4.50;3.90;;;4.50;99.90;;;;;;5082379;28;20247;-90
2022/01/29 13:20:13;;;;;;;5.78;3.97;;;4.50;99.90;;;;;;5096317;28;20216;-89
2022/01/29 13:22:42;;;;;;;3.30;3.00;;;4.60;99.90;;;;;;5092948;28;20198;-89
2022/01/29 13:25:12;;;;;;;7.18;4.28;;;4.70;99.90;;;;;;5090413;28;20478;-89